Terminal Aerodrome Forecast
Issued by NWS

Home | Current Version | Previous Version | Text Only | Print | Product List | Glossary On
Versions: 1 2 3 4 5 6 7 8 9 10 11 12 13 14 15 16 17 18 19 20 21
000
FTUS42 KRAH 262334 AAA
TAFINT
TAF AMD
KINT 262334Z 2700/2724 20003KT P6SM FEW070 BKN200
     FM271000 01004KT P6SM SCT070 BKN200
     FM271800 32006KT P6SM BKN090
     FM272300 32004KT P6SM SCT250=

USA.gov is the U.S. government's official web portal to all federal, state and local government web resources and services.